Time;durP1;ratioP1;P1;durP2;ratioP2;P2;SDS_P1;SDS_P2;PMS_P1;PMS_P2;Temp;Humidity;BMP_temperature;BMP_pressure;BME280_temperature;BME280_humidity;BME280_pressure;Samples;Min_cycle;Max_cycle;Signal;HPM_P1;HPM_P2
2021/09/29 00:02:14;;;;;;;;;1.50;1.00;;;;;16.91;60.16;101341.16;5082654;27;45299;-59
2021/09/29 00:04:40;;;;;;;;;1.75;1.50;;;;;16.91;60.18;101329.81;5082782;27;45310;-59
2021/09/29 00:07:05;;;;;;;;;2.00;1.00;;;;;16.92;60.28;101328.88;5082885;27;45362;-59
2021/09/29 00:09:30;;;;;;;;;3.25;3.00;;;;;16.94;60.26;101306.88;5082420;27;47302;-59
2021/09/29 00:11:56;;;;;;;;;1.75;0.75;;;;;16.99;60.38;101306.66;5082701;27;45290;-58
2021/09/29 00:14:21;;;;;;;;;1.00;0.75;;;;;17.02;60.21;101301.31;5082492;27;45236;-59
2021/09/29 00:16:47;;;;;;;;;3.50;1.00;;;;;17.02;60.17;101298.69;5082219;27;45305;-59
2021/09/29 00:19:12;;;;;;;;;1.50;0.00;;;;;17.01;59.88;101304.81;5082278;27;45528;-59
2021/09/29 00:21:37;;;;;;;;;2.00;0.00;;;;;17.01;60.08;101315.34;5082729;27;45336;-59
2021/09/29 00:24:03;;;;;;;;;1.75;1.00;;;;;16.99;59.98;101306.66;5082636;27;45332;-58
2021/09/29 00:26:28;;;;;;;;;2.00;2.00;;;;;16.90;60.41;101296.59;5082467;27;45245;-59
2021/09/29 00:28:54;;;;;;;;;1.75;0.75;;;;;16.90;61.35;101307.09;5082212;27;45302;-59
2021/09/29 00:34:57;;;;;;;;;2.00;0.00;;;;;16.89;60.90;101318.53;5080781;28;45432;-59
2021/09/29 00:36:52;;;;;;;;;2.25;1.00;;;;;16.91;60.88;101304.41;5075897;27;45397;-59
2021/09/29 00:39:19;;;;;;;;;1.00;0.00;;;;;16.95;61.10;101305.97;5081963;27;45261;-58
2021/09/29 00:41:45;;;;;;;;;1.00;1.00;;;;;16.95;61.01;101299.88;5069015;27;45718;-59
2021/09/29 00:44:10;;;;;;;;;0.00;0.00;;;;;16.94;61.24;101293.75;5081629;27;45580;-59
2021/09/29 00:46:36;;;;;;;;;1.00;1.00;;;;;16.96;61.09;101286.66;5081619;27;45330;-58
2021/09/29 00:49:01;;;;;;;;;5.25;0.75;;;;;16.95;61.19;101287.59;5082137;27;46135;-59
2021/09/29 00:51:27;;;;;;;;;1.00;1.00;;;;;16.99;61.48;101293.53;5081805;27;45348;-59
2021/09/29 00:53:53;;;;;;;;;1.25;0.00;;;;;16.98;61.49;101291.84;5081891;27;45416;-60
2021/09/29 00:56:20;;;;;;;;;2.75;1.00;;;;;16.97;62.40;101279.63;5081817;27;45320;-59
2021/09/29 00:58:46;;;;;;;;;2.50;0.25;;;;;16.92;62.24;101281.63;5081900;28;45450;-60
2021/09/29 01:01:11;;;;;;;;;5.00;1.00;;;;;16.86;62.25;101274.03;5081562;27;45340;-59
2021/09/29 01:03:38;;;;;;;;;1.00;1.00;;;;;16.82;62.45;101268.06;5081969;27;45339;-59
2021/09/29 01:06:10;;;;;;;;;1.00;1.00;;;;;16.81;62.89;101273.38;5081840;27;45383;-60
2021/09/29 01:08:43;;;;;;;;;0.50;0.50;;;;;16.78;62.49;101266.47;5080974;27;46710;-59
2021/09/29 01:11:34;;;;;;;;;1.75;1.00;;;;;16.80;62.64;101264.63;5081408;27;45286;-59
2021/09/29 01:14:16;;;;;;;;;1.00;1.00;;;;;16.80;62.69;101275.13;5081704;27;45303;-59
2021/09/29 01:16:44;;;;;;;;;2.25;1.00;;;;;16.77;63.38;101272.66;5081322;27;45207;-59
2021/09/29 01:19:25;;;;;;;;;0.75;0.50;;;;;16.76;63.23;101267.47;5080342;27;46122;-59
2021/09/29 01:21:57;;;;;;;;;1.00;1.00;;;;;16.77;63.29;101259.53;5081630;28;45646;-60
2021/09/29 01:24:37;;;;;;;;;1.00;0.25;;;;;16.71;63.68;101271.16;5081115;28;45373;-59
2021/09/29 01:27:02;;;;;;;;;3.75;1.25;;;;;16.68;64.23;101268.69;5081322;27;45165;-59
2021/09/29 01:29:28;;;;;;;;;2.50;1.00;;;;;16.66;64.08;101272.25;5081533;28;45259;-59
2021/09/29 01:31:54;;;;;;;;;0.75;0.75;;;;;16.63;64.52;101269.78;5080628;28;45240;-59
2021/09/29 01:34:21;;;;;;;;;1.50;0.75;;;;;16.63;65.04;101269.78;5080095;27;45216;-59
2021/09/29 01:36:47;;;;;;;;;1.50;0.50;;;;;16.64;64.01;101259.22;5080176;28;45417;-59
2021/09/29 01:39:16;;;;;;;;;1.00;1.00;;;;;16.63;65.11;101257.50;5081382;27;46125;-60
2021/09/29 01:41:41;;;;;;;;;3.75;0.75;;;;;16.66;66.18;101261.78;5067205;28;45566;-59
2021/09/29 01:44:07;;;;;;;;;2.50;1.00;;;;;16.62;65.89;101263.69;5067100;28;45222;-59
2021/09/29 01:46:33;;;;;;;;;1.00;0.25;;;;;16.63;65.72;101262.75;5080854;27;45227;-59
2021/09/29 01:49:23;;;;;;;;;4.50;1.00;;;;;16.60;66.01;101247.13;5081166;27;46081;-59
2021/09/29 01:51:50;;;;;;;;;0.75;0.50;;;;;16.51;66.29;101250.16;5080959;28;45449;-59
2021/09/29 01:54:17;;;;;;;;;2.50;1.50;;;;;16.51;67.08;101249.31;5081041;27;45412;-59
2021/09/29 01:56:45;;;;;;;;;2.00;1.00;;;;;16.51;66.40;101241.44;5080828;28;45499;-59
2021/09/29 01:59:11;;;;;;;;;1.00;1.00;;;;;16.50;67.04;101248.47;5081039;27;45658;-59
2021/09/29 02:01:38;;;;;;;;;1.25;1.25;;;;;16.51;67.19;101249.31;5080294;27;45341;-61
2021/09/29 02:04:05;;;;;;;;;2.00;1.25;;;;;16.50;67.66;101245.84;5081289;27;45333;-60
2021/09/29 02:06:30;;;;;;;;;2.00;1.25;;;;;16.47;68.34;101243.34;5080643;27;45326;-60
2021/09/29 02:08:56;;;;;;;;;2.00;1.00;;;;;16.48;68.52;101247.69;5079460;28;47092;-59
2021/09/29 02:11:21;;;;;;;;;1.00;1.00;;;;;16.50;67.96;101250.25;5079949;28;45200;-61
2021/09/29 02:13:46;;;;;;;;;2.75;0.00;;;;;16.46;69.24;101240.81;5080864;27;45415;-61
2021/09/29 02:16:12;;;;;;;;;1.00;1.00;;;;;16.41;70.67;101241.84;5080401;27;45286;-59
2021/09/29 02:18:37;;;;;;;;;1.50;1.50;;;;;16.35;70.60;101236.00;5077797;28;45871;-59
2021/09/29 02:21:03;;;;;;;;;0.50;0.50;;;;;16.30;71.92;101228.34;5080296;27;45275;-60
2021/09/29 02:23:28;;;;;;;;;2.00;1.00;;;;;16.29;73.06;101236.28;5080840;27;45391;-60
2021/09/29 02:25:54;;;;;;;;;1.00;1.00;;;;;16.28;73.70;101240.69;5080445;27;45287;-60
2021/09/29 02:28:19;;;;;;;;;2.00;1.00;;;;;16.28;72.59;101242.44;5080535;27;45231;-59
2021/09/29 02:30:44;;;;;;;;;1.00;1.00;;;;;16.28;74.57;101247.69;5080037;27;45298;-60
2021/09/29 02:33:10;;;;;;;;;1.75;0.00;;;;;16.25;75.00;101247.84;5078894;27;45345;-59
2021/09/29 02:35:36;;;;;;;;;2.00;2.00;;;;;16.25;74.42;101239.97;5077538;27;45377;-58
2021/09/29 02:38:01;;;;;;;;;2.25;1.00;;;;;16.27;75.70;101244.22;5080700;27;46503;-58
2021/09/29 02:40:26;;;;;;;;;3.50;3.00;;;;;16.24;77.06;101246.97;5077945;27;45321;-59
2021/09/29 02:42:52;;;;;;;;;2.00;2.00;;;;;16.25;76.10;101242.59;5068468;28;45824;-59
2021/09/29 02:45:17;;;;;;;;;3.25;1.00;;;;;16.26;75.69;101246.91;5077586;27;45540;-59
2021/09/29 02:47:43;;;;;;;;;0.00;0.00;;;;;16.28;75.10;101248.56;5078279;27;45610;-59
2021/09/29 02:50:08;;;;;;;;;1.75;1.00;;;;;16.25;77.55;101253.94;5078083;27;45452;-58
2021/09/29 02:52:35;;;;;;;;;3.25;2.25;;;;;16.27;77.30;101254.72;5079330;27;45354;-58
2021/09/29 02:55:00;;;;;;;;;1.25;0.00;;;;;16.21;80.19;101256.72;5078620;27;45658;-58
2021/09/29 02:57:26;;;;;;;;;2.00;2.00;;;;;16.22;77.75;101240.06;5079752;27;45405;-59
2021/09/29 02:59:51;;;;;;;;;2.25;2.00;;;;;16.22;78.28;101254.06;5080048;27;45492;-59
2021/09/29 03:02:17;;;;;;;;;3.75;1.50;;;;;16.23;77.99;101260.16;5079908;27;45271;-58
2021/09/29 03:04:42;;;;;;;;;1.00;1.00;;;;;16.24;78.11;101248.75;5079918;27;45290;-58
2021/09/29 03:07:08;;;;;;;;;3.00;1.00;;;;;16.29;77.67;101255.50;5079891;27;45256;-59
2021/09/29 03:09:33;;;;;;;;;1.00;1.00;;;;;16.33;77.49;101250.97;5078778;27;45434;-59
2021/09/29 03:11:58;;;;;;;;;1.25;1.25;;;;;16.39;78.63;101261.19;5079865;27;45481;-60
2021/09/29 03:14:24;;;;;;;;;3.50;1.25;;;;;16.36;77.80;101256.06;5077822;27;45453;-59
2021/09/29 03:16:49;;;;;;;;;1.00;1.00;;;;;16.38;79.34;101259.47;5077286;27;46986;-60
2021/09/29 03:19:14;;;;;;;;;1.00;1.00;;;;;16.36;78.39;101248.22;5078575;27;45368;-59
2021/09/29 03:21:40;;;;;;;;;3.00;2.00;;;;;16.39;78.21;101237.56;5079457;27;45314;-58
2021/09/29 03:24:05;;;;;;;;;4.00;1.25;;;;;16.37;78.40;101226.31;5078781;27;45412;-58
2021/09/29 03:26:31;;;;;;;;;0.75;0.75;;;;;16.34;78.74;101234.31;5079738;28;45626;-59
2021/09/29 03:28:56;;;;;;;;;4.00;1.50;;;;;16.30;79.56;101233.59;5079208;27;45300;-59
2021/09/29 03:31:21;;;;;;;;;3.00;2.00;;;;;16.26;80.66;101246.91;5078963;27;45342;-59
2021/09/29 03:33:47;;;;;;;;;1.00;1.00;;;;;16.23;81.08;101234.78;5080615;27;45396;-59
2021/09/29 03:36:12;;;;;;;;;3.00;1.50;;;;;16.18;81.35;101233.25;5081813;27;45518;-59
2021/09/29 03:38:38;;;;;;;;;2.75;0.00;;;;;16.26;79.85;101241.66;5083078;27;45357;-59
2021/09/29 03:41:03;;;;;;;;;0.50;0.50;;;;;16.27;81.30;101252.09;5075187;27;45627;-59
2021/09/29 03:43:28;;;;;;;;;1.00;1.00;;;;;16.28;80.66;101242.44;5081636;28;45303;-59
2021/09/29 03:45:54;;;;;;;;;2.00;2.00;;;;;16.32;80.20;101249.25;5082079;27;46283;-58
2021/09/29 03:48:19;;;;;;;;;2.00;1.75;;;;;16.38;80.90;101262.09;5082762;27;45385;-58
2021/09/29 03:50:44;;;;;;;;;0.00;0.00;;;;;16.37;81.62;101256.00;5083070;27;45394;-59
2021/09/29 03:53:10;;;;;;;;;1.25;1.00;;;;;16.39;81.32;101261.19;5082763;27;45539;-58
2021/09/29 03:55:35;;;;;;;;;2.75;2.00;;;;;16.37;82.82;101268.28;5082281;27;46023;-59
2021/09/29 03:58:01;;;;;;;;;2.00;1.00;;;;;16.32;84.70;101257.13;5082488;27;45271;-59
2021/09/29 04:00:27;;;;;;;;;0.00;0.00;;;;;16.27;83.86;101252.09;5082577;27;45366;-59
2021/09/29 04:02:52;;;;;;;;;1.00;0.50;;;;;16.21;85.04;101272.47;5082346;28;45481;-59
2021/09/29 04:05:17;;;;;;;;;1.00;1.00;;;;;16.17;83.72;101263.03;5082906;27;46451;-59
2021/09/29 04:07:43;;;;;;;;;1.25;1.00;;;;;16.16;83.89;101258.69;5082634;27;45278;-59
2021/09/29 04:10:09;;;;;;;;;3.50;1.50;;;;;16.17;83.68;101261.25;5083042;27;45401;-59
2021/09/29 04:12:35;;;;;;;;;1.00;1.00;;;;;16.21;83.82;101259.34;5082505;27;45524;-58
2021/09/29 04:15:01;;;;;;;;;2.00;0.25;;;;;16.22;84.15;101263.66;5082540;27;46875;-59
2021/09/29 04:17:26;;;;;;;;;1.25;1.00;;;;;16.19;83.98;101267.28;5080575;27;45490;-59
2021/09/29 04:19:52;;;;;;;;;1.75;0.00;;;;;16.18;83.21;101264.72;5082891;27;45382;-58
2021/09/29 04:22:17;;;;;;;;;3.25;2.00;;;;;16.18;84.63;101267.34;5082267;28;45584;-58
2021/09/29 04:24:47;;;;;;;;;0.00;0.00;;;;;16.15;85.75;101270.97;5082404;28;46301;-58
2021/09/29 04:27:14;;;;;;;;;2.00;0.75;;;;;16.15;84.00;101272.72;5082176;28;45222;-59
2021/09/29 04:29:40;;;;;;;;;0.50;0.50;;;;;16.11;85.06;101272.84;5082440;27;45425;-59
2021/09/29 04:32:07;;;;;;;;;5.50;2.00;;;;;16.11;86.23;101274.63;5081463;27;45311;-59
2021/09/29 04:34:32;;;;;;;;;1.00;1.00;;;;;16.11;84.61;101274.63;5080519;27;46376;-59
2021/09/29 04:36:58;;;;;;;;;1.75;0.00;;;;;16.16;84.12;101277.06;5080604;27;45340;-59
2021/09/29 04:39:23;;;;;;;;;1.25;0.00;;;;;16.17;85.19;101278.75;5082216;27;45398;-61
2021/09/29 04:41:48;;;;;;;;;2.25;2.00;;;;;16.14;85.38;101274.50;5068773;27;45412;-59
2021/09/29 04:44:14;;;;;;;;;2.75;2.00;;;;;16.10;85.81;101276.41;5081232;27;46262;-59
2021/09/29 04:46:39;;;;;;;;;2.00;0.00;;;;;16.13;85.57;101285.91;5081009;27;45239;-59
2021/09/29 04:49:05;;;;;;;;;1.00;1.00;;;;;16.09;86.45;101287.81;5081998;27;45326;-59
2021/09/29 04:51:30;;;;;;;;;5.00;5.00;;;;;16.03;87.67;101297.72;5081192;27;45475;-59
2021/09/29 04:53:55;;;;;;;;;2.25;2.25;;;;;15.98;87.97;101303.13;5081193;27;46048;-58
2021/09/29 04:56:21;;;;;;;;;3.00;2.25;;;;;15.92;91.82;101308.63;5081432;27;45526;-61
2021/09/29 04:58:46;;;;;;;;;1.00;0.00;;;;;15.59;91.46;101323.91;5081248;27;45661;-60
2021/09/29 05:01:15;;;;;;;;;0.50;0.50;;;;;15.49;92.25;101317.28;5074010;27;45385;-61
2021/09/29 05:03:41;;;;;;;;;0.75;0.75;;;;;15.45;91.72;101311.31;5080192;27;46360;-62
2021/09/29 05:06:06;;;;;;;;;1.25;0.00;;;;;15.41;92.08;101320.19;5081261;27;45515;-61
2021/09/29 05:08:34;;;;;;;;;0.50;0.50;;;;;15.41;92.10;101332.44;5080221;27;45428;-60
2021/09/29 05:11:16;;;;;;;;;0.75;0.75;;;;;15.37;91.88;101334.31;5080206;28;45255;-62
2021/09/29 05:13:41;;;;;;;;;1.25;0.00;;;;;15.35;91.16;101335.28;5075748;27;46101;-60
2021/09/29 05:16:07;;;;;;;;;0.75;0.75;;;;;15.34;89.90;101337.06;5079487;27;45413;-62
2021/09/29 05:18:32;;;;;;;;;0.25;0.00;;;;;15.31;90.22;101342.41;5079290;27;45387;-60
2021/09/29 05:20:58;;;;;;;;;0.00;0.00;;;;;15.25;88.03;101344.41;5077337;28;45743;-59
2021/09/29 05:23:23;;;;;;;;;1.25;0.00;;;;;15.18;87.27;101349.84;5078902;27;46091;-65
2021/09/29 05:25:49;;;;;;;;;3.00;0.00;;;;;15.17;87.88;101347.28;5079757;27;45338;-61
2021/09/29 05:28:17;;;;;;;;;1.00;0.75;;;;;15.15;87.32;101347.34;5079801;27;45690;-62
2021/09/29 05:30:44;;;;;;;;;1.00;0.00;;;;;15.20;86.83;101357.66;5078850;28;45537;-63
2021/09/29 05:33:10;;;;;;;;;0.50;0.25;;;;;15.20;86.09;101365.50;5078598;27;45334;-60
2021/09/29 05:35:36;;;;;;;;;2.00;1.00;;;;;15.16;85.87;101371.78;5076378;27;45276;-59
2021/09/29 05:38:02;;;;;;;;;2.00;2.00;;;;;15.09;86.71;101367.69;5078096;27;45488;-59
2021/09/29 05:40:28;;;;;;;;;1.00;1.00;;;;;15.11;86.55;101376.34;5078293;27;45634;-59
2021/09/29 05:42:54;;;;;;;;;1.75;0.25;;;;;15.09;86.46;101386.00;5077680;28;46329;-60
2021/09/29 05:45:20;;;;;;;;;3.00;1.25;;;;;15.07;86.44;101386.06;5076372;27;45779;-60
2021/09/29 05:47:45;;;;;;;;;1.00;1.00;;;;;15.07;87.14;101387.81;5078434;28;45448;-61
2021/09/29 05:50:11;;;;;;;;;0.00;0.00;;;;;15.06;86.65;101401.81;5080453;27;45459;-60
2021/09/29 05:52:37;;;;;;;;;0.00;0.00;;;;;15.06;86.27;101396.59;5080722;27;46114;-59
2021/09/29 05:55:03;;;;;;;;;0.00;0.00;;;;;15.00;86.68;101400.25;5079715;27;45492;-60
2021/09/29 05:57:29;;;;;;;;;0.50;0.00;;;;;15.01;86.76;101411.56;5080495;28;45299;-60
2021/09/29 05:59:54;;;;;;;;;0.00;0.00;;;;;15.02;86.97;101415.94;5080395;27;45327;-60
2021/09/29 06:02:20;;;;;;;;;2.50;1.50;;;;;15.05;86.88;101419.28;5078695;28;46038;-60
2021/09/29 06:04:45;;;;;;;;;1.25;1.00;;;;;15.07;86.53;101427.09;5080267;27;45162;-61
2021/09/29 06:07:12;;;;;;;;;0.00;0.00;;;;;15.10;86.20;101427.84;5080866;27;45663;-59
2021/09/29 06:09:40;;;;;;;;;1.00;1.00;;;;;15.06;86.43;101431.47;5079989;27;45475;-60
2021/09/29 06:12:07;;;;;;;;;0.00;0.00;;;;;15.01;86.75;101441.22;5080504;27;46262;-65
2021/09/29 06:14:32;;;;;;;;;0.00;0.00;;;;;14.99;86.46;101442.19;5080168;27;45690;-60
2021/09/29 06:17:01;;;;;;;;;0.00;0.00;;;;;14.93;87.22;101453.75;5080036;28;45208;-61
2021/09/29 06:19:26;;;;;;;;;1.00;0.00;;;;;14.93;86.72;101456.34;5078707;27;45418;-62
2021/09/29 06:21:52;;;;;;;;;0.00;0.00;;;;;14.89;87.37;101463.47;5080334;27;46267;-62
2021/09/29 06:24:17;;;;;;;;;1.00;0.00;;;;;14.90;87.14;101465.16;5080111;27;45267;-62
2021/09/29 06:26:43;;;;;;;;;1.50;0.50;;;;;14.96;87.34;101468.47;5080414;27;45278;-61
2021/09/29 06:29:08;;;;;;;;;1.00;1.00;;;;;15.02;86.83;101473.53;5079923;27;45437;-60
2021/09/29 06:31:34;;;;;;;;;2.00;1.50;;;;;15.07;86.82;101488.16;5079577;27;46289;-61
2021/09/29 06:33:59;;;;;;;;;1.00;1.00;;;;;15.12;86.29;101491.47;5064439;28;45260;-60
2021/09/29 06:36:25;;;;;;;;;0.75;0.00;;;;;15.15;86.33;101487.88;5079492;27;45337;-61
2021/09/29 06:38:50;;;;;;;;;1.50;1.00;;;;;15.17;86.64;101499.16;5080109;27;45321;-60
2021/09/29 06:41:16;;;;;;;;;4.25;4.25;;;;;15.21;86.57;101508.59;5071242;27;45938;-60
2021/09/29 06:43:42;;;;;;;;;6.25;3.25;;;;;15.24;86.43;101505.91;5076514;28;45186;-60
2021/09/29 06:46:07;;;;;;;;;2.00;0.75;;;;;15.26;85.73;101513.72;5078962;27;45457;-60
2021/09/29 06:48:33;;;;;;;;;0.00;0.00;;;;;15.25;85.67;101512.84;5080296;27;45363;-60
2021/09/29 06:50:58;;;;;;;;;0.50;0.50;;;;;15.26;85.97;101513.72;5079523;27;45223;-61
2021/09/29 06:53:23;;;;;;;;;2.00;1.75;;;;;15.26;85.96;101525.03;5079478;27;45387;-61
2021/09/29 06:55:50;;;;;;;;;1.00;1.00;;;;;15.28;85.34;101522.38;5076146;28;45192;-60
2021/09/29 06:58:16;;;;;;;;;4.50;4.50;;;;;15.27;85.59;101532.00;5079815;27;45420;-62
2021/09/29 07:00:42;;;;;;;;;3.50;1.00;;;;;15.24;85.57;101537.34;5079753;27;45497;-62
2021/09/29 07:03:08;;;;;;;;;0.75;0.75;;;;;15.22;85.34;101541.78;5079455;27;45322;-61
2021/09/29 07:05:33;;;;;;;;;1.00;1.00;;;;;15.22;85.33;101544.41;5079814;27;45312;-62
2021/09/29 07:08:00;;;;;;;;;2.75;1.00;;;;;15.28;85.28;101544.19;5078225;27;45629;-60
2021/09/29 07:10:27;;;;;;;;;0.00;0.00;;;;;15.30;84.07;101547.59;5079772;27;45353;-62
2021/09/29 07:12:54;;;;;;;;;0.50;0.50;;;;;15.30;84.23;101552.84;5079450;27;45455;-63
2021/09/29 07:15:20;;;;;;;;;0.25;0.25;;;;;15.30;83.99;101558.06;5079415;27;45208;-61
2021/09/29 07:17:45;;;;;;;;;2.00;2.00;;;;;15.34;83.78;101564.91;5078092;27;45228;-62
2021/09/29 07:20:11;;;;;;;;;3.00;1.50;;;;;15.35;81.49;101566.63;5079897;27;45181;-63
2021/09/29 07:22:40;;;;;;;;;2.25;0.50;;;;;15.34;81.74;101569.28;5078334;28;45380;-61
2021/09/29 07:25:07;;;;;;;;;3.00;3.00;;;;;15.34;82.03;101564.06;5079823;27;45510;-59
2021/09/29 07:27:32;;;;;;;;;4.00;1.00;;;;;15.36;81.48;101570.09;5079462;27;45470;-59
2021/09/29 07:29:58;;;;;;;;;1.00;1.00;;;;;15.39;80.95;101575.22;5079556;27;45247;-59
2021/09/29 07:32:25;;;;;;;;;2.75;0.75;;;;;15.38;80.93;101574.38;5079091;27;45262;-61
2021/09/29 07:34:50;;;;;;;;;5.00;3.50;;;;;15.38;81.22;101579.59;5078174;27;45274;-64
2021/09/29 07:37:16;;;;;;;;;2.00;1.00;;;;;15.43;81.77;101582.94;5078129;27;45177;-61
2021/09/29 07:39:42;;;;;;;;;2.00;2.00;;;;;15.55;80.90;101586.03;5079355;28;46231;-61
2021/09/29 07:42:09;;;;;;;;;6.50;5.00;;;;;15.58;81.07;101591.16;5066204;27;45529;-61
2021/09/29 07:44:34;;;;;;;;;8.75;6.00;;;;;15.59;81.04;101580.66;5078625;27;45353;-61
2021/09/29 07:46:59;;;;;;;;;5.50;4.00;;;;;15.68;80.74;101595.22;5078549;27;45389;-63
2021/09/29 07:49:25;;;;;;;;;1.75;1.75;;;;;15.75;79.58;101599.34;5079532;27;45329;-62
2021/09/29 07:51:50;;;;;;;;;3.25;2.00;;;;;15.82;79.89;101596.47;5077417;28;45315;-63
2021/09/29 07:54:15;;;;;;;;;2.00;2.00;;;;;15.91;79.67;101603.13;5079009;27;45323;-61
2021/09/29 07:56:41;;;;;;;;;0.00;0.00;;;;;15.92;79.22;101615.31;5079318;27;45386;-62
2021/09/29 07:59:07;;;;;;;;;4.00;2.00;;;;;15.84;79.25;101620.00;5079377;27;46883;-61
2021/09/29 08:01:32;;;;;;;;;3.25;2.00;;;;;15.85;79.00;101623.47;5078567;27;45289;-62
2021/09/29 08:03:57;;;;;;;;;6.50;3.75;;;;;15.91;79.32;101629.34;5079483;27;45218;-62
2021/09/29 08:06:23;;;;;;;;;3.50;3.50;;;;;15.99;78.57;101627.28;5079117;27;45234;-60
2021/09/29 08:08:53;;;;;;;;;4.00;3.00;;;;;16.06;78.93;101634.03;5079025;27;45990;-63
2021/09/29 08:11:18;;;;;;;;;1.00;1.00;;;;;16.10;78.66;101630.41;5078944;28;45703;-60
2021/09/29 08:13:43;;;;;;;;;1.00;1.00;;;;;16.15;77.92;101631.97;5079258;27;45320;-60
2021/09/29 08:16:09;;;;;;;;;2.00;0.50;;;;;16.25;77.67;101634.22;5078316;27;45244;-61
2021/09/29 08:18:34;;;;;;;;;3.75;3.00;;;;;16.34;76.13;101639.13;5078768;27;46250;-60
2021/09/29 08:21:02;;;;;;;;;2.50;2.50;;;;;16.42;75.11;101651.97;5082331;27;45440;-60
2021/09/29 08:23:36;;;;;;;;;2.00;2.00;;;;;16.42;74.63;101644.97;5082889;27;45298;-61
2021/09/29 08:26:23;;;;;;;;;4.25;3.00;;;;;16.45;74.68;101651.84;5082081;28;45477;-60
2021/09/29 08:31:37;;;;;;;;;1.25;1.00;;;;;16.57;73.14;101664.50;5081767;28;45249;-63
2021/09/29 08:36:35;;;;;;;;;5.00;1.25;;;;;16.65;71.55;101666.84;5081038;27;45362;-60
2021/09/29 08:44:21;;;;;;;;;9.50;6.75;;;;;16.92;70.04;101683.34;5068021;28;45298;-61
2021/09/29 08:47:05;;;;;;;;;4.00;3.25;;;;;16.92;67.58;101688.59;5078812;28;45632;-61
2021/09/29 08:49:59;;;;;;;;;4.25;2.00;;;;;16.88;68.02;101689.63;5081875;27;45223;-61
2021/09/29 09:16:45;;;;;;;;;1.00;1.00;;;;;17.53;61.21;101713.28;5081088;28;45260;-61
2021/09/29 09:19:14;;;;;;;;;2.00;2.00;;;;;17.59;61.54;101722.69;5080084;28;45505;-57
2021/09/29 09:21:52;;;;;;;;;3.00;2.00;;;;;17.68;60.41;101726.75;5080860;27;45497;-64
2021/09/29 09:24:21;;;;;;;;;3.00;1.00;;;;;17.82;60.11;101734.91;5080296;28;45381;-60
2021/09/29 09:27:09;;;;;;;;;2.75;2.00;;;;;17.82;59.42;101745.41;5081669;27;45302;-60
2021/09/29 09:29:53;;;;;;;;;4.50;3.00;;;;;17.84;60.41;101739.19;5081161;28;45253;-60
2021/09/29 09:32:23;;;;;;;;;6.25;4.50;;;;;17.86;59.36;101739.13;5080392;27;46094;-62
2021/09/29 09:34:59;;;;;;;;;1.25;0.75;;;;;17.92;58.73;101744.97;5080070;28;45480;-61
2021/09/29 09:37:29;;;;;;;;;1.00;1.00;;;;;18.02;58.60;101749.84;5080000;27;45444;-63
2021/09/29 09:40:25;;;;;;;;;3.00;0.75;;;;;18.12;58.19;101738.88;5081383;27;45468;-61
2021/09/29 09:42:56;;;;;;;;;2.50;0.50;;;;;18.25;56.72;101752.38;5070409;28;46258;-61
2021/09/29 09:45:33;;;;;;;;;1.00;1.00;;;;;18.24;56.72;101754.16;5080135;27;45610;-63
2021/09/29 09:47:59;;;;;;;;;4.00;1.00;;;;;18.19;55.92;101755.25;5081401;27;45360;-60
2021/09/29 09:50:28;;;;;;;;;14.25;9.75;;;;;18.16;57.50;101758.00;5081251;27;45225;-62
2021/09/29 09:52:54;;;;;;;;;4.50;3.00;;;;;18.15;56.57;101764.19;5081199;27;45364;-59
2021/09/29 09:55:23;;;;;;;;;2.00;0.00;;;;;18.15;55.54;101761.56;5080600;27;45443;-58
2021/09/29 09:57:53;;;;;;;;;3.00;2.00;;;;;18.31;53.85;101761.78;5081337;28;45298;-60
2021/09/29 10:00:24;;;;;;;;;1.75;1.75;;;;;18.61;53.20;101765.66;5080906;27;45374;-59
2021/09/29 10:02:51;;;;;;;;;3.25;0.50;;;;;19.69;51.93;101765.91;5080113;27;45347;-60
2021/09/29 10:05:18;;;;;;;;;4.00;1.00;;;;;20.51;48.96;101773.22;5080918;27;45511;-59
2021/09/29 10:07:48;;;;;;;;;25.25;18.75;;;;;20.52;49.81;101764.38;5080845;27;45333;-61
2021/09/29 10:27:22;;;;;;;;;5.25;1.00;;;;;19.82;49.59;101779.34;5079003;27;45818;-67
2021/09/29 10:29:56;;;;;;;;;4.00;2.00;;;;;19.82;48.36;101787.25;5080281;27;45235;-69
2021/09/29 10:32:25;;;;;;;;;5.00;2.25;;;;;19.68;49.78;101818.75;5078999;27;45307;-67
2021/09/29 10:35:10;;;;;;;;;4.00;2.25;;;;;19.34;53.81;101854.56;5078689;27;46145;-66
2021/09/29 10:41:08;;;;;;;;;2.00;1.25;;;;;17.24;76.41;101889.63;5076860;28;45482;-68
2021/09/29 11:30:24;;;;;;;;;4.75;1.00;;;;;16.60;65.59;101902.34;5054986;28;45528;-66
2021/09/29 11:38:20;;;;;;;;;1.00;1.00;;;;;17.46;61.08;101913.34;5079225;28;45244;-63
2021/09/29 11:49:31;;;;;;;;;0.00;0.00;;;;;17.63;56.48;101931.97;5079626;28;45450;-62
2021/09/29 12:11:20;;;;;;;;;3.25;2.00;;;;;17.53;54.04;101948.97;5082650;27;46582;-62
2021/09/29 12:16:26;;;;;;;;;2.00;1.00;;;;;17.88;55.39;101942.41;5082210;27;45333;-65
2021/09/29 12:18:57;;;;;;;;;5.00;1.75;;;;;18.11;53.86;101936.25;5081285;28;45455;-66
2021/09/29 12:21:49;;;;;;;;;8.25;4.75;;;;;18.24;54.00;101921.69;5082554;27;45366;-65
2021/09/29 12:24:27;;;;;;;;;5.00;4.25;;;;;18.23;53.57;101934.00;5081620;27;47120;-66
2021/09/29 12:26:54;;;;;;;;;2.75;2.00;;;;;18.18;53.73;101929.81;5081991;27;45294;-62
2021/09/29 12:29:36;;;;;;;;;6.00;2.00;;;;;18.10;54.46;101940.66;5082423;27;45292;-63
2021/09/29 12:32:32;;;;;;;;;2.00;0.50;;;;;18.00;54.21;101939.28;5079681;27;45268;-63
2021/09/29 12:35:14;;;;;;;;;1.00;1.00;;;;;18.09;53.38;101946.00;5080822;27;46227;-62
2021/09/29 12:37:54;;;;;;;;;0.00;0.00;;;;;18.27;52.32;101940.00;5069009;28;45668;-63
2021/09/29 12:40:19;;;;;;;;;4.25;2.00;;;;;18.35;51.94;101952.81;5081037;27;45256;-62
2021/09/29 12:42:45;;;;;;;;;3.25;3.00;;;;;18.23;49.36;101947.16;5070870;28;45542;-63
2021/09/29 12:45:11;;;;;;;;;2.00;1.00;;;;;18.04;49.53;101955.84;5080932;28;45838;-62
2021/09/29 12:47:39;;;;;;;;;2.00;1.00;;;;;18.05;49.23;101958.41;5081831;27;45355;-62
2021/09/29 12:50:12;;;;;;;;;2.50;1.00;;;;;18.14;49.75;101949.28;5081744;28;45333;-62
2021/09/29 12:52:46;;;;;;;;;0.25;0.00;;;;;18.21;48.48;101958.63;5082319;27;45450;-62
2021/09/29 12:55:18;;;;;;;;;0.00;0.00;;;;;18.34;49.83;101956.38;5081488;27;46196;-63
2021/09/29 12:57:44;;;;;;;;;1.00;1.00;;;;;18.40;48.12;101956.97;5081994;27;45615;-63
2021/09/29 13:00:10;;;;;;;;;3.25;2.00;;;;;18.51;48.14;101960.03;5067102;27;45537;-62
2021/09/29 13:02:36;;;;;;;;;4.00;1.00;;;;;18.61;47.44;101955.25;5081794;27;45342;-61
2021/09/29 13:05:01;;;;;;;;;1.00;1.00;;;;;18.54;47.72;101961.69;5080532;27;46127;-61
2021/09/29 13:07:27;;;;;;;;;0.00;0.00;;;;;18.41;45.84;101981.53;5081887;27;45510;-62
2021/09/29 13:09:54;;;;;;;;;2.00;0.25;;;;;18.32;46.64;101993.28;5081958;27;45473;-63
2021/09/29 13:12:19;;;;;;;;;1.25;0.75;;;;;18.27;47.75;101990.00;5081882;27;45451;-61
2021/09/29 13:14:44;;;;;;;;;1.50;0.75;;;;;18.12;46.03;102001.97;5081648;27;46217;-61
2021/09/29 13:17:10;;;;;;;;;5.50;3.00;;;;;18.05;47.07;102011.03;5080398;27;45290;-60
2021/09/29 13:20:00;;;;;;;;;1.00;1.00;;;;;17.80;47.04;102016.31;5081888;28;45704;-60
2021/09/29 13:22:23;;;;;;;;;1.00;1.00;;;;;17.64;47.48;102015.16;5081352;28;45815;-62
2021/09/29 13:38:45;;;;;;;;;3.50;1.00;;;;;17.51;50.61;102025.25;5081243;28;45499;-60
2021/09/29 13:41:11;;;;;;;;;2.50;0.50;;;;;17.70;50.49;102025.50;5073280;27;45218;-61
2021/09/29 13:43:36;;;;;;;;;2.00;1.25;;;;;17.85;50.22;102019.66;5076707;28;45433;-60
2021/09/29 13:46:02;;;;;;;;;5.25;2.50;;;;;18.09;50.31;102031.03;5079858;27;46777;-60
2021/09/29 13:48:27;;;;;;;;;2.00;2.00;;;;;18.21;50.02;102020.00;5080805;27;45341;-61
2021/09/29 13:50:53;;;;;;;;;7.25;3.50;;;;;18.18;50.70;102027.16;5081121;27;45231;-62
2021/09/29 13:53:18;;;;;;;;;1.75;1.75;;;;;18.28;49.84;102025.91;5080981;27;45422;-61
2021/09/29 13:55:45;;;;;;;;;1.50;1.00;;;;;18.39;48.28;102036.84;5079384;28;46272;-62
2021/09/29 13:58:22;;;;;;;;;3.00;1.00;;;;;18.40;48.61;102030.69;5080891;27;45267;-62
2021/09/29 14:30:34;;;;;;;;;1.25;0.00;;;;;18.14;49.89;102054.53;5080238;28;45189;-60
2021/09/29 14:33:05;;;;;;;;;4.00;1.00;;;;;18.27;49.77;102058.41;5071638;28;45372;-60